Elmwood, WI (54740)

7:51 AM CDT on September 03, 2015 (GMT -0500)
Crystal Cave | | Change Station
CLOSE
Current Station
Personal Weather Station
Location: Spring Valley, WI
Elevation: 1079 ft
Nearby Weather Stations
Active Advisory: Dense Fog Advisory

Elev 1079 ft 44.83 °N, 92.25 °W | Updated 33 minutes ago

Overcast
Overcast
66.8 °F
Feels Like 66.8 °F
N
2.0
Wind Variable Wind from ENE
Gusts 5.0 mph

Today
High -- | Low -- °F
--% Chance of Precip.
Yesterday
High -- | Low -- °F
Precip. -- in
6:32 AM 7:42 PM
Waning Gibbous, 70% visible
Pressure 29.93 in
Visibility 0.2 miles
Clouds Overcast 200 ft
Dew Point 66 °F
Humidity 98%
Rainfall 0.00 in
Snow Depth Not available.
UV 0 out of 12
Pollen 9.40 out of 12
Air Quality Not available.
Flu Activity Not available.
METAR KLUM 031235Z AUTO 06003KT 1/4SM FG OVC002 20/20 A2993 RMK AO2 T01980196
Pressure 29.93 in
Visibility 0.2 miles
Clouds Overcast 200 ft
Dew Point 66 °F
Humidity 98%
Rainfall 0.00 in
Snow Depth Not available.
UV 0 out of 12
Pollen 9.40 out of 12
Air Quality Not available.
Flu Activity Not available.
METAR KLUM 031235Z AUTO 06003KT 1/4SM FG OVC002 20/20 A2993 RMK AO2 T01980196

10-Day Weather Forecast

×

Almanac

Astronomy

Sep. 03, 2015 Rise Set
Actual Time
Civil Twilight
Nautical Twilight
Astronomical Twilight
Moon
Length of Visible Light
Length of Day
Tomorrow will be .
, % of the Moon is Illuminated

Today's Extremes

State Highs State Lows

Community

WunderPhotos

Upload Photos

1,851,946 photos uploaded!

WunderBlogs® & News

Nearby

Air Quality

  Air Quality AQ Index Pollutant
Not available.

Snow Depth

Station Depth Elevation

Earthquake Activity

City Distance Mag. Time & Date
Minimum magnitude displayed is 2.5.

Coastal Water Temperatures

Place Temperature

Stations

Nearby Weather Stations

Station Location Temp. Windchill Dew Point Humidity Wind Precip. Elev Updated Type
                   
Dense Fog Advisory
Statement as of 6:04 AM CDT on September 03, 2015

... Dense fog advisory in effect until 9 am CDT this morning...

The National Weather Service in Twin Cities/Chanhassen has issued
a dense fog advisory... which is in effect until 9 am CDT this
morning.

* Visibility... reduced to one quarter mile or less.

* Impacts... significantly reduced visibility which will lead to
hazardous driving conditions.

Precautionary/preparedness actions...

A dense fog advisory means visibilities will frequently be
reduced to less than one quarter mile. If driving... slow down...
use your headlights... and leave plenty of distance ahead of you.
Be extra aware of children awaiting school buses or walking to
school.